Latest Weather Observations for Broome

IDW60801

Issued at 6:23 am WST Wednesday 8 December 2021 (issued every 10 minutes, with the page automatically refreshed every 10 minutes)

About weather observations | Map of weather stations | Latest weather observations for WA | Other Formats
Station Details ID: 003003 Name: BROOME AIRPORT Lat: -17.95 Lon: 122.24 Height: 7.42 m
Data from the previous 72 hours. | See also: Recent months at Broome
Date/Time
WST
Temp
°C
App
Temp
°C
Dew
Point
°C
Rel
Hum
%
Delta-T
°C
Wind Press
QNH
hPa
Press
MSL
hPa
Rain since
9am
mm
Dir  Spd
km/h
Gust
km/h
Spd
kts
Gust
kts
08/06:00am 29.6 34.4 26.2 82 2.4 W 13 17 7 9 1008.0 1007.9 0.0
08/05:30am 29.5 34.4 25.9 81 2.6 W 11 15 6 8 1007.7 1007.6 0.0
08/05:00am 29.3 34.0 26.1 83 2.3 WNW 13 19 7 10 1006.9 1006.8 0.0
08/04:30am 29.4 33.6 26.0 82 2.4 W 15 22 8 12 1006.9 1006.8 0.0
08/04:00am 29.3 33.9 25.9 82 2.4 W 13 17 7 9 1006.6 1006.5 0.0
08/03:30am 29.2 34.2 26.0 83 2.3 WNW 11 15 6 8 1006.6 1006.5 0.0
08/03:00am 29.3 34.1 26.3 84 2.1 W 13 17 7 9 1006.8 1006.7 0.0
08/02:40am 29.1 34.6 26.1 84 2.1 WNW 9 13 5 7 1006.6 1006.5 0.0
08/02:30am 29.2 34.9 26.4 85 2.0 WNW 9 13 5 7 1006.5 1006.4 0.0
08/02:00am 29.3 34.1 26.3 84 2.1 W 13 20 7 11 1006.5 1006.4 0.0
08/01:30am 29.1 33.7 26.5 86 1.9 WNW 15 20 8 11 1006.1 1006.0 0.0
08/01:00am 29.1 33.7 26.5 86 1.9 WNW 15 24 8 13 1006.3 1006.2 0.0
08/12:51am 29.1 34.1 26.5 86 1.9 WNW 13 20 7 11 1006.4 1006.3 0.0
08/12:30am 29.2 33.7 26.4 85 2.0 W 15 20 8 11 1006.5 1006.4 0.0
08/12:00am 29.1 33.9 26.3 85 2.0 WNW 13 19 7 10 1007.1 1007.0 0.0
 
Date/Time
WST
Temp
°C
App
Temp
°C
Dew
Point
°C
Rel
Hum
%
Delta-T
°C
Wind Press
QNH
hPa
Press
MSL
hPa
Rain since
9am
mm
Dir  Spd
km/h
Gust
km/h
Spd
kts
Gust
kts
07/11:30pm 29.2 34.1 26.4 85 2.0 NW 13 20 7 11 1007.1 1007.0 0.0
07/11:00pm 29.2 34.3 26.2 84 2.1 NW 11 17 6 9 1007.3 1007.2 0.0
07/10:30pm 29.3 34.5 26.3 84 2.1 NW 11 17 6 9 1007.8 1007.7 0.0
07/10:00pm 29.5 35.6 26.5 84 2.1 WNW 7 15 4 8 1008.1 1008.0 0.0
07/09:30pm 29.5 34.5 26.5 84 2.1 NW 13 17 7 9 1007.0 1006.9 0.0
07/09:00pm 29.5 34.3 26.3 83 2.3 NW 13 17 7 9 1007.0 1006.9 0.0
07/08:30pm 29.5 34.3 26.3 83 2.3 NW 13 20 7 11 1006.9 1006.8 0.0
07/08:00pm 29.7 35.3 26.3 82 2.4 WNW 9 13 5 7 1007.1 1007.0 0.0
07/07:30pm 29.9 35.2 26.5 82 2.4 W 11 15 6 8 1007.0 1006.9 0.0
07/07:00pm 30.1 35.1 26.5 81 2.6 WSW 13 15 7 8 1007.0 1006.9 0.0
07/06:30pm 30.1 35.8 26.5 81 2.6 SSW 9 15 5 8 1007.1 1007.0 0.0
07/06:00pm 30.3 34.5 26.5 80 2.7 W 17 24 9 13 1005.9 1005.8 0.0
07/05:30pm 30.8 34.8 26.7 79 2.9 W 19 24 10 13 1005.2 1005.1 0.0
07/05:00pm 31.0 34.5 26.3 76 3.4 W 20 24 11 13 1004.6 1004.5 0.0
07/04:30pm 31.4 34.2 26.4 75 3.6 WNW 24 32 13 17 1003.9 1003.8 0.0
07/04:00pm 31.8 33.9 25.4 69 4.5 W 24 30 13 16 1004.2 1004.1 0.0
07/03:30pm 32.0 34.7 25.6 69 4.5 WNW 22 30 12 16 1004.4 1004.3 0.0
07/03:00pm 32.5 35.3 25.8 68 4.8 WNW 22 32 12 17 1004.6 1004.5 0.0
07/02:30pm 32.0 34.0 25.1 67 4.9 WNW 24 32 13 17 1004.8 1004.7 0.0
07/02:00pm 32.1 33.2 24.9 65 5.1 WNW 28 37 15 20 1005.1 1005.0 0.0
07/01:30pm 33.4 33.9 24.0 58 6.6 WNW 28 37 15 20 1005.3 1005.2 0.0
07/01:00pm 33.4 34.7 24.6 60 6.2 W 26 35 14 19 1005.5 1005.4 0.0
07/12:30pm 33.5 34.7 23.8 57 6.8 W 24 32 13 17 1005.8 1005.7 0.0
07/12:00pm 33.8 35.8 22.9 53 7.5 WNW 17 22 9 12 1005.8 1005.7 0.0
07/11:30am 33.4 36.2 23.7 56 6.8 W 15 19 8 10 1005.8 1005.7 0.0
07/11:00am 33.5 36.0 21.0 48 8.4 NW 9 17 5 9 1006.0 1005.9 0.0
07/10:30am 31.8 35.3 23.6 62 5.7 NW 11 17 6 9 1006.3 1006.2 0.0
07/10:00am 33.2 35.5 22.0 51 7.6 NW 13 19 7 10 1006.4 1006.3 0.0
07/09:30am 32.2 36.0 24.0 62 5.7 NW 11 19 6 10 1006.4 1006.3 0.0
07/09:00am 31.6 36.7 25.0 68 4.7 ESE 7 9 4 5 1006.5 1006.4 1.8
07/08:30am 30.9 35.3 25.0 71 4.2 SE 11 17 6 9 1006.3 1006.2 1.8
07/08:00am 31.9 36.7 24.2 63 5.4 SE 6 9 3 5 1006.2 1006.1 1.8
07/07:30am 29.8 33.8 23.7 70 4.2 E 9 11 5 6 1006.1 1006.0 1.8
07/07:00am 28.6 32.8 23.5 74 3.5 E 7 11 4 6 1006.5 1006.4 1.8
07/06:30am 26.6 31.3 23.9 85 1.9 ENE 6 11 3 6 1006.1 1006.0 1.8
07/06:00am 28.4 33.5 24.6 80 2.7 WNW 6 9 3 5 1005.6 1005.5 1.8
07/05:30am 27.0 30.7 22.6 77 3.0 ENE 7 17 4 9 1005.7 1005.6 1.8
07/05:00am 28.0 30.6 22.7 73 3.6 NW 13 20 7 11 1005.4 1005.3 1.8
07/04:30am 26.8 29.3 23.1 80 2.5 NW 15 20 8 11 1005.5 1005.4 1.4
07/04:03am 26.9 30.5 24.4 86 1.7 N 13 17 7 9 1006.7 1006.6 1.2
07/04:00am 26.8 30.9 24.5 87 1.6 NNE 11 15 6 8 1006.7 1006.6 1.2
07/03:33am 26.7 30.6 24.2 86 1.7 NNE 11 15 6 8 1006.3 1006.2 1.2
07/03:30am 26.6 30.0 24.1 86 1.7 NNE 13 15 7 8 1006.4 1006.3 1.2
07/03:08am 26.8 29.6 23.7 83 2.1 E 15 22 8 12 1006.5 1006.4 1.2
07/03:00am 27.4 29.5 23.8 81 2.5 ESE 19 28 10 15 1006.5 1006.4 1.0
07/02:56am 27.6 29.6 24.0 81 2.5 SE 20 33 11 18 1006.5 1006.4 1.0
07/02:30am 27.7 29.8 23.1 76 3.1 ESE 17 30 9 16 1006.0 1005.9 1.0
07/02:20am 28.0 28.9 21.5 67 4.3 ESE 19 33 10 18 1005.5 1005.4 1.0
07/02:09am 26.7 27.4 20.5 69 4.1 NNW 17 30 9 16 1004.1 1004.0 1.0
07/02:00am 26.9 25.8 20.3 67 4.3 N 26 48 14 26 1003.8 1003.7 1.0
07/01:58am 26.5 25.4 21.0 72 3.6 N 28 48 15 26 1003.9 1003.8 1.0
07/01:51am 27.9 27.4 22.8 74 3.5 N 30 48 16 26 1004.0 1003.9 1.0
07/01:42am 28.5 30.1 25.7 85 2.0 NNE 28 43 15 23 1004.6 1004.5 0.8
07/01:39am 28.3 30.5 25.5 85 2.0 NNE 24 41 13 22 1004.9 1004.8 0.8
07/01:30am 28.4 31.2 25.8 86 1.8 N 22 30 12 16 1005.2 1005.1 0.8
07/01:00am 28.6 32.8 26.0 86 1.8 NNE 15 19 8 10 1006.2 1006.1 0.4
07/12:54am 28.7 33.8 26.1 86 1.8 NNE 11 17 6 9 1006.4 1006.3 0.4
07/12:49am 28.7 33.6 25.9 85 2.0 NE 11 17 6 9 1006.4 1006.3 0.2
07/12:30am 29.4 33.8 25.6 80 2.7 ENE 13 17 7 9 1006.8 1006.7 0.0
07/12:19am 29.4 33.5 25.8 81 2.6 ENE 15 19 8 10 1006.9 1006.8 0.0
07/12:06am 29.3 34.1 25.7 81 2.5 ENE 11 15 6 8 1006.6 1006.5 0.0
07/12:00am 29.3 34.2 25.9 82 2.4 E 11 15 6 8 1006.6 1006.5 0.0
 
Date/Time
WST
Temp
°C
App
Temp
°C
Dew
Point
°C
Rel
Hum
%
Delta-T
°C
Wind Press
QNH
hPa
Press
MSL
hPa
Rain since
9am
mm
Dir  Spd
km/h
Gust
km/h
Spd
kts
Gust
kts
06/11:30pm 29.3 34.1 25.7 81 2.5 NE 11 15 6 8 1006.3 1006.2 0.0
06/11:00pm 29.4 33.6 26.0 82 2.4 N 15 20 8 11 1005.5 1005.4 0.0
06/10:30pm 29.3 32.5 25.9 82 2.4 NNW 20 33 11 18 1004.5 1004.4 0.0
06/10:00pm 29.4 32.2 25.8 81 2.6 NW 22 35 12 19 1004.4 1004.3 0.0
06/09:30pm 29.5 31.3 25.5 79 2.8 NW 26 35 14 19 1004.3 1004.2 0.0
06/09:00pm 29.7 32.9 25.9 80 2.7 NNW 20 30 11 16 1004.3 1004.2 0.0
06/08:30pm 29.8 32.0 25.5 78 3.0 NNW 24 41 13 22 1003.5 1003.4 0.0
06/08:00pm 29.9 32.9 25.6 78 3.1 NNW 20 30 11 16 1004.2 1004.1 0.0
06/07:30pm 30.1 35.2 25.6 77 3.2 NNW 9 17 5 9 1004.7 1004.6 0.0
06/07:00pm 29.9 33.3 25.9 79 2.8 NNW 19 28 10 15 1003.4 1003.3 0.0
06/06:30pm 29.9 33.3 25.9 79 2.8 NNW 19 32 10 17 1002.4 1002.3 0.0
06/06:00pm 30.2 32.7 25.9 78 3.1 NW 24 32 13 17 1002.4 1002.3 0.0
06/05:30pm 30.6 33.1 25.9 76 3.3 NW 24 33 13 18 1002.3 1002.2 0.0
06/05:00pm 30.8 33.8 26.1 76 3.4 N 22 32 12 17 1002.5 1002.4 0.0
06/04:30pm 31.2 33.9 26.2 75 3.6 NNW 24 35 13 19 1002.1 1002.0 0.0
06/04:00pm 31.3 33.9 26.1 74 3.7 NW 24 37 13 20 1001.7 1001.6 0.0
06/03:30pm 32.2 34.9 26.3 71 4.2 NW 24 37 13 20 1001.3 1001.2 0.0
06/03:00pm 32.8 35.7 26.6 70 4.5 WNW 24 33 13 18 1001.5 1001.4 0.0
06/02:30pm 32.3 34.0 25.9 69 4.6 WNW 28 37 15 20 1001.7 1001.6 0.0
06/02:00pm 32.5 34.7 26.1 69 4.6 NW 26 35 14 19 1002.1 1002.0 0.0
06/01:30pm 32.8 36.0 25.9 67 4.9 NW 20 32 11 17 1002.4 1002.3 0.0
06/01:00pm 33.4 36.8 25.9 65 5.4 NW 19 26 10 14 1002.9 1002.8 0.0
06/12:30pm 33.0 36.5 26.0 66 5.0 NW 19 26 10 14 1003.2 1003.1 0.0
06/12:00pm 32.6 36.4 25.9 68 4.8 WNW 17 24 9 13 1003.3 1003.2 0.0
06/11:30am 33.2 37.4 27.0 70 4.5 WNW 19 30 10 16 1003.3 1003.2 0.0
06/11:00am 31.9 35.5 26.2 72 4.1 WNW 19 26 10 14 1003.8 1003.7 0.0
06/10:30am 32.2 36.4 26.5 72 4.1 WNW 17 28 9 15 1004.0 1003.9 0.0
06/10:00am 32.2 36.4 27.0 74 3.8 WNW 19 26 10 14 1004.4 1004.3 0.0
06/09:30am 31.6 35.9 26.6 75 3.6 NW 17 24 9 13 1004.6 1004.5 0.0
06/09:00am 31.5 35.9 26.3 74 3.7 NW 15 20 8 11 1004.9 1004.8 0.0
06/08:30am 31.2 35.9 26.7 77 3.2 WNW 15 22 8 12 1005.0 1004.9 0.0
06/08:00am 31.1 35.4 26.6 77 3.2 NW 17 22 9 12 1005.1 1005.0 0.0
06/07:30am 30.6 34.8 26.5 79 2.9 NW 17 26 9 14 1004.9 1004.8 0.0
06/07:28am 30.7 35.0 26.6 79 2.9 NW 17 26 9 14 1004.8 1004.7 0.0
06/07:00am 30.4 34.3 26.6 80 2.7 NW 19 26 10 14 1004.3 1004.2 0.0
06/06:30am 29.9 34.1 26.5 82 2.4 NW 17 22 9 12 1003.9 1003.8 0.0
06/06:00am 29.3 33.4 26.3 84 2.1 NW 17 24 9 13 1003.8 1003.7 0.0
06/05:30am 29.0 34.3 26.4 86 1.9 NW 11 17 6 9 1004.1 1004.0 0.0
06/05:25am 28.8 34.5 26.4 87 1.7 NW 9 13 5 7 1004.1 1004.0 0.0
06/05:00am 28.7 33.9 26.3 87 1.7 NW 11 15 6 8 1004.0 1003.9 0.0
06/04:30am 28.9 34.2 26.5 87 1.7 WNW 11 15 6 8 1004.1 1004.0 0.0
06/04:00am 28.8 32.9 26.4 87 1.7 WNW 17 24 9 13 1003.6 1003.5 0.0
06/03:51am 28.8 33.3 26.4 87 1.7 NW 15 24 8 13 1003.4 1003.3 0.0
06/03:30am 28.7 32.2 26.3 87 1.7 NW 20 30 11 16 1002.9 1002.8 0.0
06/03:00am 28.6 32.2 26.2 87 1.7 NW 19 28 10 15 1002.7 1002.6 0.0
06/02:30am 28.6 32.3 25.8 85 2.0 WNW 17 26 9 14 1003.3 1003.2 0.0
06/02:23am 28.6 32.2 25.6 84 2.1 WNW 17 28 9 15 1003.3 1003.2 0.0
06/02:00am 28.7 32.8 25.7 84 2.1 WNW 15 20 8 11 1003.6 1003.5 0.0
06/01:59am 28.7 32.9 25.9 85 2.0 WNW 15 19 8 10 1003.6 1003.5 0.0
06/01:30am 28.8 32.4 25.6 83 2.3 WNW 17 24 9 13 1004.0 1003.9 0.0
06/01:00am 28.9 33.0 25.7 83 2.3 WNW 15 22 8 12 1004.3 1004.2 0.0
06/12:39am 29.0 32.9 26.0 84 2.1 WNW 17 22 9 12 1004.5 1004.4 0.0
06/12:30am 29.1 33.0 26.1 84 2.1 W 17 22 9 12 1004.5 1004.4 0.0
06/12:03am 28.9 32.8 26.1 85 2.0 WNW 17 26 9 14 1004.7 1004.6 0.0
06/12:00am 28.9 32.8 26.1 85 2.0 WNW 17 26 9 14 1004.7 1004.6 0.0
 
Date/Time
WST
Temp
°C
App
Temp
°C
Dew
Point
°C
Rel
Hum
%
Delta-T
°C
Wind Press
QNH
hPa
Press
MSL
hPa
Rain since
9am
mm
Dir  Spd
km/h
Gust
km/h
Spd
kts
Gust
kts
05/11:38pm 28.9 32.7 25.9 84 2.1 NW 17 26 9 14 1004.5 1004.4 0.0
05/11:30pm 28.9 32.7 25.9 84 2.1 NW 17 22 9 12 1004.7 1004.6 0.0
05/11:23pm 29.0 32.9 26.0 84 2.1 NW 17 26 9 14 1004.8 1004.7 0.0
05/11:00pm 29.1 33.0 26.1 84 2.1 NW 17 24 9 13 1005.0 1004.9 0.0
05/10:30pm 29.1 33.3 25.9 83 2.3 NW 15 22 8 12 1005.1 1005.0 0.0
05/10:00pm 29.2 33.8 26.0 83 2.3 NW 13 20 7 11 1005.1 1005.0 0.0
05/09:30pm 29.2 33.1 26.0 83 2.3 NW 17 26 9 14 1005.0 1004.9 0.0
05/09:00pm 29.3 34.0 26.1 83 2.3 NNW 13 20 7 11 1005.3 1005.2 0.0
05/08:30pm 29.3 33.7 26.3 84 2.1 NNW 15 24 8 13 1004.8 1004.7 0.0
05/08:00pm 29.3 33.4 26.3 84 2.1 NW 17 24 9 13 1004.5 1004.4 0.0
05/07:45pm 29.4 34.4 26.6 85 2.0 NNW 13 19 7 10 1004.8 1004.7 0.0
05/07:32pm 29.5 34.8 26.5 84 2.1 N 11 17 6 9 1004.8 1004.7 0.0
05/07:30pm 29.4 34.7 26.4 84 2.1 N 11 17 6 9 1004.8 1004.7 0.0
05/07:29pm 29.4 34.7 26.4 84 2.1 N 11 17 6 9 1004.8 1004.7 0.0
05/07:00pm 29.7 35.9 26.7 84 2.2 N 7 13 4 7 1004.5 1004.4 0.0
05/06:30pm 29.5 33.3 26.5 84 2.1 NW 19 26 10 14 1003.6 1003.5 0.0
05/06:00pm 29.8 33.7 26.6 83 2.3 NW 19 26 10 14 1003.2 1003.1 0.0
05/05:30pm 30.6 34.6 26.7 80 2.8 NW 19 28 10 15 1003.3 1003.2 0.0
05/05:00pm 30.8 34.4 26.5 78 3.1 NW 20 33 11 18 1003.2 1003.1 0.0
05/04:30pm 31.2 34.7 26.9 78 3.1 NW 22 35 12 19 1002.9 1002.8 0.0
05/04:27pm 31.2 34.2 26.7 77 3.2 NW 24 35 13 19 1002.9 1002.8 0.0
05/04:00pm 31.4 34.2 26.4 75 3.6 NW 24 32 13 17 1002.8 1002.7 0.0
05/03:30pm 31.4 34.0 26.7 76 3.4 NW 26 35 14 19 1002.7 1002.6 0.0
05/03:00pm 32.4 36.1 27.2 74 3.8 WNW 22 32 12 17 1003.2 1003.1 0.0
05/02:30pm 32.5 36.3 27.3 74 3.8 WNW 22 33 12 18 1003.5 1003.4 0.0
05/02:00pm 32.1 35.4 26.6 72 4.0 WNW 22 32 12 17 1004.0 1003.9 0.0
05/01:30pm 32.2 35.8 27.0 74 3.8 NW 22 32 12 17 1004.1 1004.0 0.0
05/01:00pm 32.0 35.1 26.3 72 4.1 NW 22 30 12 16 1004.5 1004.4 0.0
05/12:30pm 33.0 37.2 27.3 72 4.1 NW 20 30 11 16 1004.8 1004.7 0.0
05/12:00pm 32.2 35.4 26.5 72 4.1 WNW 22 32 12 17 1005.1 1005.0 0.0
05/11:30am 32.3 35.8 26.8 73 4.0 NW 22 32 12 17 1005.3 1005.2 0.0
05/11:00am 32.8 37.1 27.5 73 3.9 NW 20 32 11 17 1005.9 1005.8 0.0
05/10:33am 32.1 36.0 26.9 74 3.8 NW 20 30 11 16 1006.4 1006.3 0.0
05/10:30am 32.2 36.0 26.7 72 4.0 NW 20 30 11 16 1006.4 1006.3 0.0
05/10:20am 32.1 35.8 26.6 72 4.0 NW 20 30 11 16 1006.7 1006.6 0.0
05/10:00am 31.9 35.5 26.4 72 4.0 NW 20 30 11 16 1006.7 1006.6 0.0
05/09:30am 31.4 34.2 26.4 75 3.6 NW 24 30 13 16 1006.9 1006.8 0.0
05/09:21am 31.5 34.7 26.5 75 3.6 NW 22 32 12 17 1007.0 1006.9 0.0
05/09:04am 32.0 35.9 27.5 77 3.3 NNW 22 32 12 17 1007.1 1007.0 0.0
05/09:00am 31.3 34.4 26.3 75 3.6 NNW 22 30 12 16 1007.1 1007.0 0.0
05/08:30am 31.3 34.8 26.3 75 3.6 NW 20 33 11 18 1007.1 1007.0 0.0
05/08:09am 31.0 34.8 26.7 78 3.1 NW 20 28 11 15 1007.1 1007.0 0.0
05/08:00am 31.0 34.8 26.5 77 3.2 NNW 19 26 10 14 1007.1 1007.0 0.0
05/07:30am 30.4 34.9 27.0 82 2.4 NW 17 26 9 14 1007.0 1006.9 0.0
05/07:10am 30.5 35.4 26.9 81 2.6 NW 15 22 8 12 1006.9 1006.8 0.0
05/07:00am 29.8 34.2 26.8 84 2.2 NW 17 26 9 14 1006.8 1006.7 0.0
05/06:50am 29.7 34.3 27.1 86 1.9 NW 17 22 9 12 1006.8 1006.7 0.0
05/06:30am 29.5 33.7 27.1 87 1.7 NW 19 28 10 15 1006.5 1006.4 0.0
05/06:28am 29.5 34.1 27.1 87 1.7 NW 17 26 9 14 1006.4 1006.3 0.0

Other formats

Comma delimited format used in spreadsheet applications
http://www.bom.gov.au/fwo/IDW60801/IDW60801.94203.axf

JavaScript Object Notation format (JSON) in row-major order
http://www.bom.gov.au/fwo/IDW60801/IDW60801.94203.json

Data quality

Most of these data are generated automatically and are frequently updated. Quality checks on data are not normally performed. It is possible for incorrect values to appear. Refer to information at About Latest Weather Observations and please check the disclaimer before using these data.